Flight Track Log - Related Links

Times and Time Zones

All times are in EDT time to prevent confusion due to time zone crossing. See the SKW6492 flight status page for this flight to view local times or setup timezone preferences in your user account.

Time Position Orientation Groundspeed Altitude Reporting Facility
EDT Latitude Longitude Course Direction KTS MPH feet Rate Location/Type
Thu 10:10:44 PM 39.8000 -104.7000 346° North 221 254 7,500  Level Denver TRACON
Thu 10:11:32 PM 39.8333 -104.7500 311° West 254 292 8,800 1,416 Climbing Denver TRACON
Thu 10:12:13 PM 39.8914 -104.7542 357° North 285 328 9,600 1,282 Climbing Denver Center
Thu 10:13:00 PM 40.2787 -104.8052 347° North  Level FlightAware Approximate
Thu 10:13:15 PM 39.9853 -104.7650 355° North 311 358 11,000  Level Denver Center
Thu 10:14:00 PM 40.3860 -104.8398 346° North  Level FlightAware Approximate
Thu 10:14:17 PM 40.0800 -104.7756 355° North 336 387 12,400  Level Denver Center
Thu 10:15:00 PM 40.4932 -104.8755 346° North  Level FlightAware Approximate
Thu 10:15:19 PM 40.1881 -104.7875 355° North 359 413 13,800  Level Denver Center
Thu 10:16:21 PM 40.2897 -104.7989 355° North 366 421 15,700 1,839 Climbing Denver Center
Thu 10:17:23 PM 40.3878 -104.8089 356° North 357 411 17,600 1,694 Climbing Denver Center
Thu 10:18:25 PM 40.4939 -104.8219 355° North 355 409 19,200 1,452 Climbing Denver Center
Thu 10:19:27 PM 40.5922 -104.8325 355° North 356 410 20,600 1,161 Climbing Denver Center
Thu 10:20:29 PM 40.6881 -104.8625 347° North 352 405 21,600 1,016 Climbing Denver Center
Thu 10:21:31 PM 40.7692 -104.9442 323° Northwest 366 421 22,700 1,065 Climbing Denver Center
Thu 10:22:33 PM 40.8500 -105.0236 323° Northwest 366 421 23,800 823 Climbing Denver Center
Thu 10:23:35 PM 40.9278 -105.1025 323° Northwest 359 413 24,400 629 Climbing Denver Center
Thu 10:24:37 PM 41.0225 -105.1989 322° Northwest 357 411 25,100 581 Climbing Denver Center
Thu 10:25:39 PM 41.1042 -105.2833 322° Northwest 370 426 25,600 581 Climbing Denver Center
Thu 10:26:41 PM 41.1881 -105.3683 323° Northwest 377 434 26,300 677 Climbing Denver Center
Thu 10:27:43 PM 41.2722 -105.4542 323° Northwest 382 440 27,000 677 Climbing Denver Center
Thu 10:28:45 PM 41.3569 -105.5422 322° Northwest 383 441 27,700 484 Climbing Denver Center
Thu 10:29:47 PM 41.4431 -105.6306 322° Northwest 386 444 28,000 145 Climbing Denver Center
Thu 10:30:49 PM 41.5519 -105.7428 322° Northwest 406 467 28,000  Level Denver Center
Thu 10:31:51 PM 41.6422 -105.8367 322° Northwest 424 488 28,000  Level Denver Center
Thu 10:32:53 PM 41.7333 -105.9300 323° Northwest 429 494 28,000  Level Denver Center
Thu 10:33:55 PM 41.8406 -106.0422 322° Northwest 435 501 28,000  Level Denver Center
Thu 10:34:57 PM 41.9322 -106.1403 322° Northwest 437 503 28,000  Level Denver Center
Thu 10:35:59 PM 42.0397 -106.2539 322° Northwest 439 505 28,000  Level Denver Center
Thu 10:37:01 PM 42.1322 -106.3514 322° Northwest 440 506 28,000  Level Denver Center
Thu 10:38:03 PM 42.2394 -106.4644 322° Northwest 440 506 28,000  Level Denver Center
Thu 10:39:05 PM 42.3311 -106.5631 322° Northwest 441 507 28,000  Level Denver Center
Thu 10:40:07 PM 42.4383 -106.6783 322° Northwest 442 509 28,000  Level Denver Center
Thu 10:41:09 PM 42.5278 -106.7756 321° Northwest 436 502 28,000  Level Denver Center
Thu 10:42:11 PM 42.6294 -106.8836 322° Northwest 426 490 28,000  Level Denver Center
Thu 10:43:13 PM 42.7200 -106.9836 321° Northwest 423 487 28,000  Level Denver Center
Thu 10:44:15 PM 42.8108 -107.0825 321° Northwest 422 486 28,000  Level Denver Center
Thu 10:45:16 PM 42.9019 -107.1822 321° Northwest 421 484 28,000  Level Denver Center
Thu 10:46:18 PM 42.9892 -107.2894 318° Northwest 421 484 28,000  Level Denver Center
Thu 10:47:20 PM 43.0817 -107.4344 311° West 422 486 28,000  Level Denver Center
Thu 10:48:22 PM 43.1542 -107.5608 308° West 422 486 28,000  Level Denver Center
Thu 10:49:24 PM 43.2489 -107.6600 323° Northwest 426 490 28,000  Level Denver Center
Thu 10:50:26 PM 43.3450 -107.7586 323° Northwest 429 494 28,000  Level Denver Center
Thu 10:51:28 PM 43.4400 -107.8581 323° Northwest 430 495 28,000  Level Denver Center
Thu 10:52:56 PM 43.5931 -108.0164 323° Northwest 430 495 28,000 -40 Level Salt Lake Center
Thu 10:53:58 PM 43.6886 -108.1183 322° Northwest 432 497 27,900 -1,415 Descending Salt Lake Center
Thu 10:54:59 PM 43.7861 -108.2208 323° Northwest 435 501 25,100 -2,927 Descending Salt Lake Center
Thu 10:56:01 PM 43.8803 -108.3250 321° Northwest 437 503 21,900 -3,073 Descending Salt Lake Center
Thu 10:57:02 PM 43.9675 -108.4156 323° Northwest 409 471 18,800 -2,976 Descending Salt Lake Center
Thu 10:58:04 PM 44.0500 -108.5058 322° Northwest 392 451 15,800 -2,976 Descending Salt Lake Center
Thu 10:59:05 PM 44.1311 -108.5919 323° Northwest 381 438 12,700 -2,780 Descending Salt Lake Center
Thu 11:00:07 PM 44.2092 -108.6758 322° Northwest 370 426 10,100 -1,317 Descending Salt Lake Center
Thu 11:01:08 PM 44.2928 -108.7650 323° Northwest 345 397 10,000 -49 Descending Salt Lake Center
Thu 11:02:10 PM 44.3572 -108.8356 322° Northwest 320 368 10,000  Level Salt Lake Center

Login

Don't have an account? Register now (free) for customized features, flight alerts, and more!